Time;durP1;ratioP1;P1;durP2;ratioP2;P2;SDS_P1;SDS_P2;PMS_P1;PMS_P2;Temp;Humidity;BMP_temperature;BMP_pressure;BME280_temperature;BME280_humidity;BME280_pressure;Samples;Min_cycle;Max_cycle;Signal;HPM_P1;HPM_P2
2024/03/27 00:02:09;;;;;;;4.38;1.70;;;12.20;77.10;;;;;;5028320;28;20117;-77
2024/03/27 00:04:35;;;;;;;6.00;1.60;;;12.10;77.10;;;;;;5013286;28;20481;-77
2024/03/27 00:07:00;;;;;;;5.10;1.67;;;12.20;77.20;;;;;;5012042;28;20080;-77
2024/03/27 00:09:26;;;;;;;3.63;1.40;;;12.20;77.10;;;;;;5013142;28;20072;-77
2024/03/27 00:11:52;;;;;;;5.28;1.75;;;12.20;77.80;;;;;;5013386;28;20033;-77
2024/03/27 00:14:18;;;;;;;5.10;1.90;;;12.20;77.10;;;;;;5013319;28;20026;-78
2024/03/27 00:16:44;;;;;;;3.85;1.42;;;12.20;77.10;;;;;;5028608;28;20018;-77
2024/03/27 00:19:10;;;;;;;3.45;1.55;;;12.20;77.10;;;;;;5028066;28;20492;-77
2024/03/27 00:21:36;;;;;;;6.80;2.05;;;12.10;76.90;;;;;;5028544;28;20566;-77
2024/03/27 00:24:03;;;;;;;6.90;1.77;;;12.10;77.40;;;;;;5013369;28;20049;-77
2024/03/27 00:26:32;;;;;;;3.72;1.48;;;12.20;76.80;;;;;;5028380;28;20228;-77
2024/03/27 00:28:58;;;;;;;3.90;1.70;;;12.20;76.80;;;;;;5013171;28;20493;-78
2024/03/27 00:31:24;;;;;;;4.18;1.50;;;12.20;76.70;;;;;;5027977;28;20399;-77
2024/03/27 00:33:50;;;;;;;3.60;1.35;;;12.10;76.70;;;;;;5027929;28;20022;-78
2024/03/27 00:36:16;;;;;;;4.53;1.80;;;12.10;76.70;;;;;;5012924;28;20064;-78
2024/03/27 00:38:42;;;;;;;3.72;2.22;;;12.10;76.70;;;;;;5012946;28;20017;-78
2024/03/27 00:41:08;;;;;;;4.72;1.67;;;12.00;76.60;;;;;;5013042;28;20029;-77
2024/03/27 00:43:35;;;;;;;3.10;1.52;;;12.10;76.70;;;;;;5012903;28;20076;-77
2024/03/27 00:46:05;;;;;;;4.07;1.70;;;12.10;76.70;;;;;;5028029;28;20042;-77
2024/03/27 00:48:31;;;;;;;4.32;1.30;;;12.00;76.60;;;;;;5013354;28;20053;-77
2024/03/27 00:50:57;;;;;;;5.45;1.95;;;12.00;76.60;;;;;;5013067;28;20026;-77
2024/03/27 00:53:23;;;;;;;4.55;1.88;;;12.00;76.60;;;;;;5012661;28;20484;-78
2024/03/27 00:55:59;;;;;;;5.28;2.10;;;12.00;76.60;;;;;;5012800;28;20490;-77
2024/03/27 00:58:25;;;;;;;4.20;1.70;;;11.90;76.50;;;;;;5013974;28;20184;-77
2024/03/27 01:00:52;;;;;;;8.10;1.83;;;11.90;76.50;;;;;;5016748;28;20510;-77
2024/03/27 01:03:17;;;;;;;3.95;1.52;;;11.80;76.50;;;;;;5016591;28;20094;-78
2024/03/27 01:05:43;;;;;;;5.03;1.45;;;11.70;76.60;;;;;;5016702;28;20478;-77
2024/03/27 01:08:09;;;;;;;4.90;1.83;;;11.70;76.70;;;;;;5016730;28;20037;-78
2024/03/27 01:10:37;;;;;;;5.00;1.58;;;11.80;76.80;;;;;;5016549;28;20108;-77
2024/03/27 01:13:03;;;;;;;6.40;2.30;;;11.70;76.80;;;;;;5016329;28;20026;-78
2024/03/27 01:15:29;;;;;;;3.15;1.38;;;11.60;76.70;;;;;;5016592;28;20434;-77
2024/03/27 01:17:55;;;;;;;4.75;1.73;;;11.60;76.90;;;;;;5016485;28;20025;-78
2024/03/27 01:20:22;;;;;;;4.40;1.90;;;11.60;76.90;;;;;;5016537;28;20040;-77
2024/03/27 01:22:48;;;;;;;4.53;1.60;;;11.50;76.90;;;;;;5015917;28;20072;-77
2024/03/27 01:25:14;;;;;;;5.13;2.10;;;11.50;77.70;;;;;;5016201;28;20104;-77
2024/03/27 01:27:40;;;;;;;4.72;1.63;;;11.50;77.00;;;;;;5031369;28;20490;-77
2024/03/27 01:30:09;;;;;;;4.28;1.90;;;11.40;77.10;;;;;;5016152;28;20026;-78
2024/03/27 01:32:35;;;;;;;5.85;1.77;;;11.40;77.20;;;;;;5015629;28;20037;-78
2024/03/27 01:35:00;;;;;;;3.33;1.45;;;11.30;77.80;;;;;;5016300;28;20018;-78
2024/03/27 01:37:26;;;;;;;4.40;1.90;;;11.20;77.20;;;;;;5016234;28;20056;-77
2024/03/27 01:39:52;;;;;;;4.65;1.67;;;11.20;77.30;;;;;;5016124;28;20496;-76
2024/03/27 01:42:18;;;;;;;3.85;2.13;;;11.20;77.50;;;;;;5016021;28;20021;-77
2024/03/27 01:44:43;;;;;;;7.70;2.35;;;11.20;77.60;;;;;;5015365;28;20049;-77
2024/03/27 01:47:12;;;;;;;8.55;2.17;;;11.20;77.70;;;;;;5015757;28;20030;-77
2024/03/27 01:49:40;;;;;;;5.68;2.03;;;11.10;77.80;;;;;;5015760;28;20134;-77
2024/03/27 01:52:06;;;;;;;4.60;2.10;;;11.10;77.80;;;;;;5030659;28;20463;-76
2024/03/27 01:54:33;;;;;;;4.18;1.65;;;11.10;77.80;;;;;;5015673;28;20026;-77
2024/03/27 01:56:59;;;;;;;5.35;2.22;;;11.10;77.80;;;;;;5015561;28;20062;-77
2024/03/27 01:59:25;;;;;;;5.13;2.00;;;11.20;78.00;;;;;;5015872;28;20026;-77
2024/03/27 02:01:52;;;;;;;4.43;2.08;;;11.10;77.90;;;;;;5015566;28;20022;-76
2024/03/27 02:04:18;;;;;;;4.05;1.80;;;11.10;77.90;;;;;;5030639;28;20419;-77
2024/03/27 02:06:43;;;;;;;4.35;2.08;;;11.10;77.90;;;;;;5015488;28;20093;-77
2024/03/27 02:09:09;;;;;;;4.07;1.60;;;11.10;77.90;;;;;;5015389;28;20026;-77
2024/03/27 02:11:35;;;;;;;5.90;2.17;;;11.10;78.00;;;;;;5029521;28;20022;-76
2024/03/27 02:14:01;;;;;;;6.10;2.50;;;11.00;78.00;;;;;;5015527;28;20026;-77
2024/03/27 02:16:26;;;;;;;5.97;2.13;;;11.10;78.00;;;;;;5015225;28;20049;-77
2024/03/27 02:18:52;;;;;;;6.47;2.40;;;11.00;78.00;;;;;;5015583;28;20026;-77
2024/03/27 02:21:18;;;;;;;6.77;2.60;;;11.00;78.10;;;;;;5015451;28;20094;-77
2024/03/27 02:23:51;;;;;;;4.07;2.00;;;11.00;78.30;;;;;;5030487;28;20439;-76
2024/03/27 02:26:23;;;;;;;4.03;1.87;;;11.00;78.40;;;;;;5015045;28;20029;-77
2024/03/27 02:28:49;;;;;;;5.03;1.97;;;11.00;78.60;;;;;;5015270;28;20307;-77
2024/03/27 02:31:14;;;;;;;4.70;2.20;;;10.90;78.50;;;;;;5014742;28;20080;-77
2024/03/27 02:33:40;;;;;;;8.20;2.20;;;10.90;78.60;;;;;;5014975;28;20537;-77
2024/03/27 02:36:06;;;;;;;5.18;1.95;;;10.90;78.70;;;;;;5014683;28;20029;-77
2024/03/27 02:38:31;;;;;;;4.25;2.05;;;10.90;78.80;;;;;;5030057;28;20021;-76
2024/03/27 02:40:57;;;;;;;6.20;2.00;;;10.90;78.80;;;;;;5014904;28;20088;-77
2024/03/27 02:43:24;;;;;;;6.88;2.28;;;10.90;78.80;;;;;;5015015;28;20058;-77
2024/03/27 02:45:49;;;;;;;6.23;2.60;;;10.90;78.80;;;;;;5014470;28;20089;-77
2024/03/27 02:48:16;;;;;;;5.87;2.10;;;10.80;78.80;;;;;;5029535;28;20071;-77
2024/03/27 02:50:41;;;;;;;6.07;2.23;;;10.80;78.90;;;;;;5014557;28;20079;-77
2024/03/27 02:53:07;;;;;;;4.00;1.87;;;10.80;78.90;;;;;;5029763;28;20025;-77
2024/03/27 02:55:33;;;;;;;6.83;1.60;;;10.80;78.90;;;;;;5014783;28;20026;-77
2024/03/27 02:57:58;;;;;;;4.43;1.73;;;10.80;79.00;;;;;;5013050;28;20374;-76
2024/03/27 03:00:24;;;;;;;5.27;2.40;;;10.80;79.10;;;;;;5029661;28;20022;-77
2024/03/27 03:02:49;;;;;;;4.23;1.80;;;10.80;79.10;;;;;;5014665;28;20106;-77
2024/03/27 03:05:15;;;;;;;9.30;2.13;;;10.80;79.20;;;;;;5014441;28;20041;-77
2024/03/27 03:07:41;;;;;;;5.37;2.20;;;10.70;79.30;;;;;;5013913;28;20121;-76
2024/03/27 03:10:07;;;;;;;4.23;1.90;;;10.70;79.50;;;;;;5029581;28;20022;-77
2024/03/27 03:12:33;;;;;;;5.37;1.87;;;10.80;79.60;;;;;;5014543;28;20056;-77
2024/03/27 03:14:59;;;;;;;5.35;2.20;;;10.80;79.70;;;;;;5014221;28;20053;-77
2024/03/27 03:17:24;;;;;;;6.17;2.07;;;10.80;79.90;;;;;;5014164;28;20050;-77
2024/03/27 03:19:50;;;;;;;5.68;2.05;;;10.70;80.00;;;;;;5029259;28;20041;-77
2024/03/27 03:22:16;;;;;;;7.18;2.67;;;10.80;80.40;;;;;;5029256;28;20018;-77
2024/03/27 03:24:42;;;;;;;6.80;2.40;;;10.80;80.40;;;;;;5013931;28;20021;-78
2024/03/27 03:27:08;;;;;;;5.70;2.10;;;10.80;80.40;;;;;;5013969;28;20033;-76
2024/03/27 03:29:33;;;;;;;5.40;2.40;;;10.80;81.20;;;;;;5029128;28;20022;-77
2024/03/27 03:31:59;;;;;;;3.72;1.85;;;10.80;80.60;;;;;;5013858;28;20033;-77
2024/03/27 03:34:25;;;;;;;6.17;2.37;;;10.90;80.90;;;;;;5015077;28;20168;-77
2024/03/27 03:36:51;;;;;;;5.97;1.67;;;10.90;81.10;;;;;;5013946;28;20105;-77
2024/03/27 03:39:17;;;;;;;5.30;1.67;;;10.90;81.00;;;;;;5013586;28;20382;-77
2024/03/27 03:41:42;;;;;;;5.30;2.20;;;10.90;81.00;;;;;;5013498;28;20441;-77
2024/03/27 03:44:08;;;;;;;5.20;1.97;;;11.00;81.10;;;;;;5028600;28;20021;-77
2024/03/27 03:46:34;;;;;;;7.30;2.47;;;10.90;81.10;;;;;;5013617;28;20051;-78
2024/03/27 03:48:59;;;;;;;4.07;1.90;;;10.90;81.10;;;;;;5029339;28;20128;-77
2024/03/27 03:51:25;;;;;;;5.00;1.90;;;10.90;81.30;;;;;;5028762;28;20038;-77
2024/03/27 03:53:52;;;;;;;5.38;1.90;;;10.90;81.50;;;;;;5028824;28;20076;-77
2024/03/27 03:56:17;;;;;;;5.90;2.10;;;10.90;81.30;;;;;;5013318;28;20030;-77
2024/03/27 03:58:43;;;;;;;5.70;2.17;;;10.90;81.40;;;;;;5013428;28;20030;-77
2024/03/27 04:01:08;;;;;;;4.43;2.08;;;10.90;81.30;;;;;;5013777;28;20034;-77
2024/03/27 04:03:34;;;;;;;6.73;2.07;;;11.00;81.50;;;;;;5028594;28;20034;-77
2024/03/27 04:06:00;;;;;;;6.60;2.50;;;11.00;81.60;;;;;;5028468;28;20072;-77
2024/03/27 04:08:26;;;;;;;6.40;2.03;;;11.00;81.60;;;;;;5013358;28;20034;-77
2024/03/27 04:10:51;;;;;;;3.65;1.70;;;11.00;81.70;;;;;;5012138;28;20018;-77
2024/03/27 04:13:18;;;;;;;5.55;2.03;;;11.00;81.70;;;;;;5013135;28;20022;-77
2024/03/27 04:15:44;;;;;;;4.83;2.10;;;11.00;81.70;;;;;;5013118;28;20464;-77
2024/03/27 04:18:10;;;;;;;4.43;1.70;;;11.10;81.80;;;;;;5013326;28;20116;-77
2024/03/27 04:20:42;;;;;;;6.22;1.75;;;11.00;81.80;;;;;;5013125;28;20106;-77
2024/03/27 04:23:08;;;;;;;5.67;1.70;;;11.00;82.00;;;;;;5013119;28;20113;-77
2024/03/27 04:25:34;;;;;;;4.38;2.05;;;11.00;82.10;;;;;;5013266;28;20026;-78
2024/03/27 04:27:59;;;;;;;4.15;1.83;;;11.10;82.20;;;;;;5012758;28;20046;-77
2024/03/27 04:30:26;;;;;;;5.50;1.53;;;11.10;82.40;;;;;;5013306;28;20085;-78
2024/03/27 04:32:53;;;;;;;6.50;1.90;;;11.00;82.70;;;;;;5014272;28;20105;-77
2024/03/27 04:35:19;;;;;;;6.10;1.92;;;11.00;83.00;;;;;;5019614;28;20543;-78
2024/03/27 04:37:45;;;;;;;6.45;2.05;;;11.00;84.60;;;;;;5019555;28;20022;-78
2024/03/27 04:40:11;;;;;;;3.85;1.52;;;11.10;84.50;;;;;;5034587;28;20032;-77
2024/03/27 04:42:37;;;;;;;4.90;1.80;;;11.10;84.20;;;;;;5034882;28;20389;-77
2024/03/27 04:45:08;;;;;;;4.65;2.00;;;11.10;84.80;;;;;;5019599;28;20513;-78
2024/03/27 04:47:35;;;;;;;4.57;2.08;;;11.10;84.90;;;;;;5034538;28;20388;-77
2024/03/27 04:50:01;;;;;;;5.22;2.17;;;11.10;85.10;;;;;;5019160;28;20081;-77
2024/03/27 04:52:26;;;;;;;5.78;1.90;;;11.10;85.30;;;;;;5034790;28;20025;-77
2024/03/27 04:54:52;;;;;;;4.63;1.75;;;11.10;85.00;;;;;;5034594;28;20022;-78
2024/03/27 04:57:18;;;;;;;5.07;1.83;;;11.10;85.60;;;;;;5019311;28;20044;-77
2024/03/27 04:59:43;;;;;;;4.40;1.65;;;11.10;85.40;;;;;;5019645;28;20029;-77
2024/03/27 05:02:09;;;;;;;4.35;1.98;;;11.10;85.40;;;;;;5019397;28;20356;-76
2024/03/27 05:04:38;;;;;;;7.18;2.70;;;11.10;85.50;;;;;;5019189;28;20032;-78
2024/03/27 05:07:06;;;;;;;4.63;1.63;;;11.00;85.50;;;;;;5019262;28;20044;-77
2024/03/27 05:09:35;;;;;;;7.65;1.80;;;11.00;85.70;;;;;;5019537;28;20030;-78
2024/03/27 05:12:01;;;;;;;8.50;2.40;;;11.10;86.00;;;;;;5034608;28;20026;-78
2024/03/27 05:14:27;;;;;;;4.93;2.13;;;11.00;86.10;;;;;;5019360;28;20482;-77
2024/03/27 05:16:53;;;;;;;6.63;2.20;;;11.10;86.40;;;;;;5019041;28;20021;-77
2024/03/27 05:19:19;;;;;;;5.87;1.73;;;11.10;86.60;;;;;;5019476;28;20014;-77
2024/03/27 05:21:45;;;;;;;4.93;2.17;;;11.00;86.50;;;;;;5024231;28;20079;-78
2024/03/27 05:24:10;;;;;;;6.13;2.00;;;11.00;86.70;;;;;;5021634;28;20100;-78
2024/03/27 05:26:36;;;;;;;7.75;1.83;;;11.00;86.90;;;;;;5038548;28;20083;-77
2024/03/27 05:29:01;;;;;;;7.23;2.30;;;11.00;87.30;;;;;;5038798;28;20037;-78
2024/03/27 05:31:27;;;;;;;6.57;1.60;;;11.00;87.20;;;;;;5036906;28;20017;-77
2024/03/27 05:33:53;;;;;;;5.27;1.90;;;11.00;87.20;;;;;;5038954;28;20184;-77
2024/03/27 05:36:19;;;;;;;5.90;2.05;;;11.00;87.60;;;;;;5038913;28;20092;-77
2024/03/27 05:38:45;;;;;;;4.97;1.63;;;11.00;87.50;;;;;;5038726;28;20428;-77
2024/03/27 05:41:10;;;;;;;4.00;1.60;;;11.00;87.50;;;;;;5038868;28;20075;-78
2024/03/27 05:43:37;;;;;;;6.10;1.73;;;11.10;87.50;;;;;;5038815;28;20436;-78
2024/03/27 05:46:02;;;;;;;3.75;1.45;;;11.00;87.50;;;;;;5033039;28;20040;-81
2024/03/27 05:48:28;;;;;;;3.85;1.40;;;11.10;87.50;;;;;;5035575;28;20059;-82
2024/03/27 05:50:54;;;;;;;4.68;1.60;;;11.10;87.60;;;;;;5034435;28;20018;-82
2024/03/27 05:53:23;;;;;;;3.13;1.60;;;11.10;87.70;;;;;;5035473;28;20021;-80
2024/03/27 05:55:58;;;;;;;4.93;1.98;;;11.20;88.00;;;;;;5035534;28;20049;-81
2024/03/27 05:58:26;;;;;;;5.45;1.67;;;11.10;87.90;;;;;;5033970;28;20032;-81
2024/03/27 06:00:51;;;;;;;3.97;2.13;;;11.10;88.90;;;;;;5034183;28;20405;-80
2024/03/27 06:03:17;;;;;;;3.63;1.45;;;11.20;88.40;;;;;;5035746;28;20025;-81
2024/03/27 06:05:43;;;;;;;3.58;1.77;;;11.10;88.40;;;;;;5035235;28;20109;-80
2024/03/27 06:08:09;;;;;;;3.85;1.65;;;11.10;88.60;;;;;;5033680;28;20560;-82
2024/03/27 06:10:35;;;;;;;2.90;1.42;;;11.20;89.20;;;;;;5033911;28;20401;-80
2024/03/27 06:13:04;;;;;;;3.38;1.58;;;11.20;88.80;;;;;;5035072;28;20029;-83
2024/03/27 06:15:33;;;;;;;2.75;1.67;;;11.20;88.80;;;;;;5035623;28;20126;-81
2024/03/27 06:18:00;;;;;;;4.63;2.38;;;11.10;88.80;;;;;;5035199;28;20044;-83
2024/03/27 06:20:26;;;;;;;5.75;2.33;;;11.20;89.50;;;;;;5033543;28;20060;-81
2024/03/27 06:22:54;;;;;;;3.92;2.10;;;11.20;89.40;;;;;;5035122;28;20018;-82
2024/03/27 06:25:19;;;;;;;4.72;2.13;;;11.20;89.80;;;;;;5035287;28;20026;-82
2024/03/27 06:27:45;;;;;;;3.15;1.85;;;11.10;89.80;;;;;;5035324;28;20033;-82
2024/03/27 06:30:12;;;;;;;4.05;2.30;;;11.10;89.90;;;;;;5034772;28;20545;-80
2024/03/27 06:32:39;;;;;;;5.78;3.50;;;11.10;89.90;;;;;;5034765;28;20105;-82
2024/03/27 06:35:06;;;;;;;5.10;3.15;;;11.20;90.20;;;;;;5033706;28;20400;-82
2024/03/27 06:37:32;;;;;;;4.85;2.95;;;11.10;90.10;;;;;;5034956;28;20027;-80
2024/03/27 06:39:58;;;;;;;5.80;3.58;;;11.10;90.30;;;;;;5035111;28;20027;-82
2024/03/27 06:42:24;;;;;;;4.97;3.20;;;11.10;90.30;;;;;;5035135;28;20021;-81
2024/03/27 06:44:50;;;;;;;7.35;3.40;;;11.10;90.50;;;;;;5035083;28;20520;-82
2024/03/27 06:47:16;;;;;;;5.80;3.65;;;11.10;90.60;;;;;;5035744;28;20056;-81
2024/03/27 06:49:41;;;;;;;6.22;4.05;;;11.10;90.60;;;;;;5034456;28;20057;-81
2024/03/27 06:52:07;;;;;;;6.43;3.38;;;11.10;90.70;;;;;;5032987;28;20030;-80
2024/03/27 06:54:33;;;;;;;4.97;2.70;;;11.10;90.60;;;;;;5035441;28;20485;-81
2024/03/27 06:56:58;;;;;;;7.05;4.40;;;11.00;90.60;;;;;;5032091;28;20017;-79
2024/03/27 06:59:24;;;;;;;9.65;6.25;;;11.00;90.80;;;;;;5033037;28;20025;-80
2024/03/27 07:01:49;;;;;;;15.73;9.55;;;11.00;90.90;;;;;;5033025;28;20017;-79
2024/03/27 07:04:15;;;;;;;14.32;9.40;;;11.00;91.20;;;;;;5032904;28;20026;-78
2024/03/27 07:06:40;;;;;;;15.10;9.20;;;11.00;91.30;;;;;;5034161;28;20079;-80
2024/03/27 07:09:06;;;;;;;12.57;8.07;;;11.00;91.30;;;;;;5033877;28;20022;-79
2024/03/27 07:11:32;;;;;;;12.68;8.85;;;10.90;91.30;;;;;;5033792;28;20039;-79
2024/03/27 07:13:58;;;;;;;13.45;9.63;;;10.80;91.50;;;;;;5032419;28;20021;-79
2024/03/27 07:16:23;;;;;;;14.83;8.70;;;10.70;92.00;;;;;;5033555;28;20030;-78
2024/03/27 07:18:49;;;;;;;12.13;7.77;;;10.70;91.90;;;;;;5033552;28;20033;-80
2024/03/27 07:21:15;;;;;;;10.47;6.70;;;10.60;92.10;;;;;;5033515;28;20375;-80
2024/03/27 07:23:40;;;;;;;10.93;6.87;;;10.50;92.60;;;;;;5030692;28;20072;-80
2024/03/27 07:26:07;;;;;;;11.43;7.03;;;10.50;92.70;;;;;;5032392;28;20033;-81
2024/03/27 07:28:33;;;;;;;11.50;7.60;;;10.40;92.90;;;;;;5033023;28;20126;-79
2024/03/27 07:30:59;;;;;;;15.53;9.33;;;10.30;93.00;;;;;;5033214;28;20025;-80
2024/03/27 07:33:25;;;;;;;16.67;11.43;;;10.30;93.50;;;;;;5033373;28;20121;-82
2024/03/27 07:35:51;;;;;;;20.07;12.60;;;10.30;93.70;;;;;;5033375;28;20053;-81
2024/03/27 07:38:17;;;;;;;15.80;10.83;;;10.20;93.90;;;;;;5032422;28;20520;-82
2024/03/27 07:40:43;;;;;;;17.83;11.90;;;10.20;93.60;;;;;;5033511;28;20083;-78
2024/03/27 07:43:08;;;;;;;16.60;11.90;;;10.20;94.30;;;;;;5033344;28;20489;-82
2024/03/27 07:45:34;;;;;;;15.10;10.33;;;10.10;93.90;;;;;;5032162;28;20472;-82
2024/03/27 07:48:00;;;;;;;17.20;10.67;;;10.10;94.40;;;;;;5033264;28;20041;-80
2024/03/27 07:50:26;;;;;;;18.13;10.87;;;10.10;94.30;;;;;;5033347;28;20386;-81
2024/03/27 07:52:51;;;;;;;15.83;9.93;;;10.00;94.60;;;;;;5032081;28;20018;-80
2024/03/27 07:55:17;;;;;;;13.47;9.47;;;10.00;94.50;;;;;;5033225;28;20025;-81
2024/03/27 07:57:43;;;;;;;15.07;9.07;;;10.00;94.50;;;;;;5031757;28;20032;-80
2024/03/27 08:00:11;;;;;;;14.20;9.10;;;10.00;95.00;;;;;;5033506;28;20025;-81
2024/03/27 08:02:40;;;;;;;11.83;7.77;;;9.90;94.70;;;;;;5032013;28;20021;-81
2024/03/27 08:05:07;;;;;;;14.73;8.07;;;9.90;95.00;;;;;;5031816;28;20026;-81
2024/03/27 08:07:34;;;;;;;11.13;7.33;;;9.90;94.90;;;;;;5031219;28;20565;-80
2024/03/27 08:10:00;;;;;;;12.10;7.17;;;9.90;95.00;;;;;;5032841;28;20034;-80
2024/03/27 08:12:26;;;;;;;12.20;8.37;;;9.90;95.10;;;;;;5031845;28;20077;-81
2024/03/27 08:14:52;;;;;;;14.40;8.47;;;9.90;95.10;;;;;;5033204;28;20017;-82
2024/03/27 08:17:17;;;;;;;13.47;8.97;;;9.90;95.40;;;;;;5033392;28;20037;-81
2024/03/27 08:19:43;;;;;;;14.37;9.50;;;9.90;95.40;;;;;;5033153;28;20029;-81
2024/03/27 08:22:09;;;;;;;14.60;9.40;;;10.00;95.40;;;;;;5032836;28;20381;-80
2024/03/27 08:24:35;;;;;;;16.90;10.03;;;9.90;95.40;;;;;;5031630;28;20064;-81
2024/03/27 08:27:02;;;;;;;16.90;10.47;;;10.00;95.70;;;;;;5031611;28;20051;-81
2024/03/27 08:29:28;;;;;;;16.60;12.00;;;10.00;95.60;;;;;;5033246;28;20028;-81
2024/03/27 08:31:58;;;;;;;15.60;10.93;;;10.00;95.60;;;;;;5032833;28;20104;-81
2024/03/27 08:34:24;;;;;;;18.60;11.60;;;10.10;95.70;;;;;;5032629;28;20146;-81
2024/03/27 08:36:49;;;;;;;16.13;11.70;;;10.10;95.60;;;;;;5031536;28;20009;-81
2024/03/27 08:39:15;;;;;;;16.40;11.43;;;10.10;95.60;;;;;;5032464;28;20051;-81
2024/03/27 08:41:41;;;;;;;16.07;11.07;;;10.20;95.70;;;;;;5032839;28;20049;-81
2024/03/27 08:44:08;;;;;;;16.60;11.80;;;10.20;95.70;;;;;;5031497;28;20018;-81
2024/03/27 08:46:33;;;;;;;16.17;11.83;;;10.20;95.80;;;;;;5032616;28;20591;-81
2024/03/27 08:48:59;;;;;;;17.57;12.70;;;10.30;95.90;;;;;;5032817;28;20045;-81
2024/03/27 08:51:25;;;;;;;17.90;12.30;;;10.30;96.10;;;;;;5031140;28;20359;-81
2024/03/27 08:53:52;;;;;;;18.90;12.38;;;10.30;96.10;;;;;;5032374;28;20083;-81
2024/03/27 08:56:18;;;;;;;16.97;12.93;;;10.50;96.10;;;;;;5047846;28;20099;-81
2024/03/27 08:58:44;;;;;;;17.40;12.13;;;10.50;96.30;;;;;;5032379;28;20021;-80
2024/03/27 09:01:15;;;;;;;17.77;12.93;;;10.60;96.20;;;;;;5032535;28;20389;-81
2024/03/27 09:03:41;;;;;;;20.60;11.73;;;10.60;96.10;;;;;;5032237;28;20413;-81
2024/03/27 09:06:08;;;;;;;14.73;11.10;;;10.60;96.20;;;;;;5031121;28;20052;-81
2024/03/27 09:08:34;;;;;;;16.15;11.30;;;10.70;96.20;;;;;;5032692;28;20026;-81
2024/03/27 09:11:00;;;;;;;14.90;10.90;;;10.70;96.10;;;;;;5031188;28;20527;-80
2024/03/27 09:13:26;;;;;;;16.83;11.15;;;10.80;96.10;;;;;;5032501;28;20128;-82
2024/03/27 09:15:54;;;;;;;19.10;11.93;;;10.80;96.10;;;;;;5032388;28;20383;-81
2024/03/27 09:18:19;;;;;;;15.95;11.55;;;10.80;96.00;;;;;;5031074;28;20029;-81
2024/03/27 09:20:54;;;;;;;14.37;10.17;;;10.80;96.00;;;;;;5034321;28;20049;-81
2024/03/27 09:23:20;;;;;;;15.27;11.02;;;10.90;96.20;;;;;;5036017;28;20040;-82
2024/03/27 09:26:00;;;;;;;16.33;12.02;;;10.90;95.90;;;;;;5034607;28;20509;-81
2024/03/27 09:28:26;;;;;;;15.03;11.33;;;10.90;95.80;;;;;;5036006;28;20072;-81
2024/03/27 09:30:52;;;;;;;16.38;11.07;;;10.90;95.70;;;;;;5035490;28;20044;-81
2024/03/27 09:33:18;;;;;;;16.67;11.25;;;10.90;95.70;;;;;;5035903;28;20027;-80
2024/03/27 09:35:46;;;;;;;15.70;11.32;;;10.90;95.60;;;;;;5034354;28;20026;-81
2024/03/27 09:38:13;;;;;;;15.73;10.10;;;10.90;95.50;;;;;;5035929;28;20021;-81
2024/03/27 09:40:45;;;;;;;13.98;10.48;;;10.90;95.50;;;;;;5035861;28;20033;-81
2024/03/27 09:43:11;;;;;;;14.70;10.32;;;10.80;95.50;;;;;;5034336;28;20029;-80
2024/03/27 09:45:38;;;;;;;15.50;9.93;;;10.80;95.50;;;;;;5034047;28;20045;-81
2024/03/27 09:48:06;;;;;;;13.53;9.47;;;10.80;95.50;;;;;;5051478;28;20028;-80
2024/03/27 09:50:32;;;;;;;13.30;9.60;;;10.80;95.90;;;;;;5035776;28;20092;-80
2024/03/27 09:52:58;;;;;;;14.70;9.75;;;10.90;95.90;;;;;;5035597;28;20025;-80
2024/03/27 09:55:28;;;;;;;13.50;9.13;;;10.90;96.00;;;;;;5034330;28;20025;-81
2024/03/27 09:57:56;;;;;;;14.80;10.05;;;11.00;96.10;;;;;;5034285;28;20075;-81
2024/03/27 10:00:22;;;;;;;12.82;8.90;;;11.00;95.90;;;;;;5035193;28;20083;-81
2024/03/27 10:02:48;;;;;;;12.82;8.35;;;11.00;95.90;;;;;;5050636;28;20025;-81
2024/03/27 10:05:17;;;;;;;10.60;7.05;;;11.00;95.90;;;;;;5035181;28;20026;-81
2024/03/27 10:07:43;;;;;;;11.57;7.82;;;11.00;95.80;;;;;;5033806;28;20561;-81
2024/03/27 10:10:09;;;;;;;14.35;7.13;;;11.10;95.80;;;;;;5035117;28;20108;-81
2024/03/27 10:12:34;;;;;;;13.18;7.07;;;11.00;95.70;;;;;;5035363;28;20093;-82
2024/03/27 10:15:00;;;;;;;10.48;6.43;;;11.10;95.70;;;;;;5050220;28;20117;-80
2024/03/27 10:17:26;;;;;;;12.38;6.28;;;11.10;95.70;;;;;;5033852;28;20037;-82
2024/03/27 10:19:54;;;;;;;10.70;5.75;;;11.10;95.60;;;;;;5033530;28;20022;-81
2024/03/27 10:22:20;;;;;;;9.15;4.90;;;11.10;95.50;;;;;;5033617;28;20049;-82
2024/03/27 10:24:48;;;;;;;10.38;5.47;;;11.00;95.40;;;;;;5034923;28;20527;-81
2024/03/27 10:27:13;;;;;;;8.52;5.13;;;11.00;95.50;;;;;;5034930;28;20116;-82
2024/03/27 10:29:39;;;;;;;10.50;4.40;;;11.00;95.40;;;;;;5034364;28;20144;-81
2024/03/27 10:32:05;;;;;;;10.25;5.03;;;11.00;95.40;;;;;;5033879;28;20026;-81
2024/03/27 10:34:30;;;;;;;7.30;4.25;;;11.00;95.30;;;;;;5034919;28;20470;-83
2024/03/27 10:36:59;;;;;;;8.65;4.50;;;11.00;95.40;;;;;;5034927;28;20031;-82
2024/03/27 10:39:29;;;;;;;10.83;4.47;;;10.90;95.20;;;;;;5034935;28;20018;-81
2024/03/27 10:41:56;;;;;;;10.18;4.50;;;10.90;95.20;;;;;;5033497;28;20053;-82
2024/03/27 10:44:22;;;;;;;9.93;4.10;;;10.90;95.40;;;;;;5033010;28;20083;-82
2024/03/27 10:46:52;;;;;;;8.32;4.60;;;10.90;95.40;;;;;;5034287;28;20071;-82
2024/03/27 10:49:20;;;;;;;8.40;5.10;;;10.90;95.50;;;;;;5034447;28;20029;-82
2024/03/27 10:51:47;;;;;;;7.40;4.15;;;10.90;95.60;;;;;;5034507;28;20025;-80
2024/03/27 10:54:14;;;;;;;7.45;3.95;;;10.90;95.60;;;;;;5034451;28;20034;-80
2024/03/27 10:56:40;;;;;;;6.97;3.60;;;11.00;95.70;;;;;;5034110;28;20147;-80
2024/03/27 10:59:06;;;;;;;8.88;4.78;;;11.00;95.70;;;;;;5032703;28;20112;-80
2024/03/27 11:01:37;;;;;;;7.50;4.40;;;11.10;95.70;;;;;;5034134;28;20077;-82
2024/03/27 11:04:04;;;;;;;9.55;4.45;;;11.00;95.60;;;;;;5034143;28;20025;-81
2024/03/27 11:06:32;;;;;;;9.90;4.70;;;11.00;95.60;;;;;;5049267;28;20387;-82
2024/03/27 11:08:59;;;;;;;8.60;4.07;;;11.00;95.70;;;;;;5033707;28;20104;-82
2024/03/27 11:11:25;;;;;;;7.95;4.35;;;11.10;95.80;;;;;;5033806;28;20029;-81
2024/03/27 11:13:51;;;;;;;6.95;3.72;;;11.10;95.90;;;;;;5033927;28;20390;-80
2024/03/27 11:16:22;;;;;;;7.45;3.58;;;11.20;95.90;;;;;;5034610;28;20014;-80
2024/03/27 11:18:48;;;;;;;6.60;3.60;;;11.30;95.90;;;;;;5035724;28;20030;-80
2024/03/27 11:21:14;;;;;;;7.55;4.18;;;11.30;95.90;;;;;;5033596;28;20084;-81
2024/03/27 11:23:42;;;;;;;9.48;4.35;;;11.30;95.90;;;;;;5033544;28;20482;-83
2024/03/27 11:26:07;;;;;;;7.22;3.72;;;11.30;95.70;;;;;;5034015;28;20101;-83
2024/03/27 11:28:33;;;;;;;7.55;3.70;;;11.40;95.70;;;;;;5032079;28;20124;-81
2024/03/27 11:31:01;;;;;;;7.53;3.35;;;11.30;95.50;;;;;;5033471;28;20052;-82
2024/03/27 11:33:27;;;;;;;6.90;3.45;;;11.40;95.40;;;;;;5033481;28;20104;-81
2024/03/27 11:35:53;;;;;;;5.78;3.17;;;11.30;95.10;;;;;;5020399;28;20275;-81
2024/03/27 11:38:23;;;;;;;8.18;3.55;;;11.30;95.20;;;;;;5013562;28;20022;-81
2024/03/27 11:40:53;;;;;;;7.05;3.40;;;11.40;95.30;;;;;;5028574;28;20481;-81
2024/03/27 11:43:19;;;;;;;9.48;3.65;;;11.40;95.20;;;;;;5012672;28;20026;-83
2024/03/27 11:45:47;;;;;;;9.45;4.25;;;11.40;95.00;;;;;;5013246;28;20046;-81
2024/03/27 11:48:13;;;;;;;7.72;2.95;;;11.40;94.90;;;;;;5013850;28;20060;-82
2024/03/27 11:50:40;;;;;;;4.78;2.55;;;11.40;94.90;;;;;;5013688;28;20053;-81
2024/03/27 11:53:09;;;;;;;5.82;2.88;;;11.40;95.10;;;;;;5028899;28;20014;-80
2024/03/27 11:55:35;;;;;;;6.60;2.70;;;11.40;94.80;;;;;;5013310;28;20026;-81
2024/03/27 11:58:00;;;;;;;6.63;2.95;;;11.50;94.80;;;;;;5013697;28;20030;-81
2024/03/27 12:00:26;;;;;;;5.22;2.60;;;11.50;94.90;;;;;;5013740;28;20528;-80
2024/03/27 12:02:52;;;;;;;6.00;2.92;;;11.50;94.60;;;;;;5013518;28;20500;-80
2024/03/27 12:05:19;;;;;;;6.90;3.67;;;11.50;94.60;;;;;;5013361;28;20033;-80
2024/03/27 12:07:45;;;;;;;6.47;2.72;;;11.50;94.50;;;;;;5028401;28;20026;-80
2024/03/27 12:10:12;;;;;;;6.18;3.38;;;11.50;94.30;;;;;;5013167;28;20030;-81
2024/03/27 12:12:38;;;;;;;6.70;3.60;;;11.50;94.40;;;;;;5013546;28;20029;-81
2024/03/27 12:15:04;;;;;;;6.38;2.75;;;11.50;94.30;;;;;;5013459;28;20505;-80
2024/03/27 12:17:31;;;;;;;6.70;3.15;;;11.60;94.40;;;;;;5013219;28;20109;-80
2024/03/27 12:19:58;;;;;;;5.70;3.17;;;11.60;94.30;;;;;;5013541;28;20100;-80
2024/03/27 12:22:26;;;;;;;5.97;3.00;;;11.70;94.20;;;;;;5012923;28;20080;-82
2024/03/27 12:24:52;;;;;;;5.28;3.05;;;11.70;94.20;;;;;;5028253;28;20088;-80
2024/03/27 12:27:22;;;;;;;5.97;3.17;;;11.70;94.10;;;;;;5028195;28;20025;-80
2024/03/27 12:29:51;;;;;;;5.75;2.55;;;11.70;93.90;;;;;;5012907;28;20490;-83
2024/03/27 12:32:20;;;;;;;4.80;2.55;;;11.70;93.80;;;;;;5027938;28;20037;-81
2024/03/27 12:34:47;;;;;;;5.65;2.50;;;11.70;93.70;;;;;;5012784;28;20026;-82
2024/03/27 12:37:14;;;;;;;5.63;3.08;;;11.70;93.60;;;;;;5011957;28;20021;-81
2024/03/27 12:39:43;;;;;;;6.00;2.83;;;11.80;93.60;;;;;;5027897;28;20459;-82